sensor_id;sensor_type;location;lat;lon;timestamp;pressure;altitude;pressure_sealevel;temperature;humidity
17362;BME280;8798;51.938;4.348;2023-12-07T00:00:44;101127.38;;;1.89;97.73
17362;BME280;8798;51.938;4.348;2023-12-07T00:03:12;101131.91;;;1.87;96.81
17362;BME280;8798;51.938;4.348;2023-12-07T00:05:43;101130.22;;;1.86;97.91
17362;BME280;8798;51.938;4.348;2023-12-07T00:08:11;101136.44;;;1.85;97.58
17362;BME280;8798;51.938;4.348;2023-12-07T00:10:39;101143.44;;;1.86;97.41
17362;BME280;8798;51.938;4.348;2023-12-07T00:13:07;101149.66;;;1.85;96.99
17362;BME280;8798;51.938;4.348;2023-12-07T00:15:37;101156.69;;;1.86;97.57
17362;BME280;8798;51.938;4.348;2023-12-07T00:18:06;101160.25;;;1.85;97.01
17362;BME280;8798;51.938;4.348;2023-12-07T00:20:34;101175.31;;;1.84;97.51
17362;BME280;8798;51.938;4.348;2023-12-07T00:23:02;101168.22;;;1.85;96.75
17362;BME280;8798;51.938;4.348;2023-12-07T00:25:30;101181.56;;;1.83;97.11
17362;BME280;8798;51.938;4.348;2023-12-07T00:27:59;101188.63;;;1.83;97.39
17362;BME280;8798;51.938;4.348;2023-12-07T00:30:27;101190.41;;;1.82;97.77
17362;BME280;8798;51.938;4.348;2023-12-07T00:32:55;101195.81;;;1.81;97.72
17362;BME280;8798;51.938;4.348;2023-12-07T00:35:24;101187.09;;;1.79;96.98
17362;BME280;8798;51.938;4.348;2023-12-07T00:38:01;101195.97;;;1.78;96.93
17362;BME280;8798;51.938;4.348;2023-12-07T00:40:29;101203.91;;;1.78;97.17
17362;BME280;8798;51.938;4.348;2023-12-07T00:43:03;101201.28;;;1.78;96.67
17362;BME280;8798;51.938;4.348;2023-12-07T00:45:31;101210.16;;;1.77;97.52
17362;BME280;8798;51.938;4.348;2023-12-07T00:47:59;101211.97;;;1.76;96.91
17362;BME280;8798;51.938;4.348;2023-12-07T00:50:29;101227.84;;;1.76;97.42
17362;BME280;8798;51.938;4.348;2023-12-07T00:52:58;101222.56;;;1.76;97.62
17362;BME280;8798;51.938;4.348;2023-12-07T00:55:26;101230.50;;;1.76;97.04
17362;BME280;8798;51.938;4.348;2023-12-07T00:57:54;101231.41;;;1.75;97.55
17362;BME280;8798;51.938;4.348;2023-12-07T01:00:22;101239.38;;;1.75;97.07
17362;BME280;8798;51.938;4.348;2023-12-07T01:02:50;101241.25;;;1.73;97.38
17362;BME280;8798;51.938;4.348;2023-12-07T01:05:19;101244.00;;;1.71;97.27
17362;BME280;8798;51.938;4.348;2023-12-07T01:07:48;101249.28;;;1.71;97.40
17362;BME280;8798;51.938;4.348;2023-12-07T01:10:16;101254.59;;;1.71;97.90
17362;BME280;8798;51.938;4.348;2023-12-07T01:12:45;101256.38;;;1.71;97.22
17362;BME280;8798;51.938;4.348;2023-12-07T01:15:13;101259.94;;;1.70;97.64
17362;BME280;8798;51.938;4.348;2023-12-07T01:17:41;101261.75;;;1.69;97.68
17362;BME280;8798;51.938;4.348;2023-12-07T01:20:10;101275.00;;;1.69;97.52
17362;BME280;8798;51.938;4.348;2023-12-07T01:22:40;101283.72;;;1.71;96.84
17362;BME280;8798;51.938;4.348;2023-12-07T01:25:10;101296.94;;;1.71;97.74
17362;BME280;8798;51.938;4.348;2023-12-07T01:27:38;101303.94;;;1.72;97.16
17362;BME280;8798;51.938;4.348;2023-12-07T01:30:07;101316.25;;;1.74;96.90
17362;BME280;8798;51.938;4.348;2023-12-07T01:32:36;101325.91;;;1.75;97.44
17362;BME280;8798;51.938;4.348;2023-12-07T01:35:05;101335.47;;;1.77;96.96
17362;BME280;8798;51.938;4.348;2023-12-07T01:37:33;101347.78;;;1.78;96.92
17362;BME280;8798;51.938;4.348;2023-12-07T01:40:02;101366.94;;;1.83;97.00
17362;BME280;8798;51.938;4.348;2023-12-07T01:42:34;101377.59;;;1.82;97.40
17362;BME280;8798;51.938;4.348;2023-12-07T01:45:02;101392.47;;;1.84;97.19
17362;BME280;8798;51.938;4.348;2023-12-07T01:47:30;101395.09;;;1.84;97.32
17362;BME280;8798;51.938;4.348;2023-12-07T01:49:59;101405.63;;;1.86;96.81
17362;BME280;8798;51.938;4.348;2023-12-07T01:52:37;101412.63;;;1.87;97.56
17362;BME280;8798;51.938;4.348;2023-12-07T01:55:07;101435.44;;;1.89;97.19
17362;BME280;8798;51.938;4.348;2023-12-07T01:57:38;101450.25;;;1.93;97.04
17362;BME280;8798;51.938;4.348;2023-12-07T02:00:08;101472.22;;;1.96;97.43
17362;BME280;8798;51.938;4.348;2023-12-07T02:02:37;101482.72;;;1.97;96.79
17362;BME280;8798;51.938;4.348;2023-12-07T02:05:06;101491.44;;;1.99;97.03
17362;BME280;8798;51.938;4.348;2023-12-07T02:07:34;101498.44;;;2.00;96.80
17362;BME280;8798;51.938;4.348;2023-12-07T02:10:03;101510.78;;;2.01;97.36
17362;BME280;8798;51.938;4.348;2023-12-07T02:12:33;101516.06;;;2.01;97.18
17362;BME280;8798;51.938;4.348;2023-12-07T02:15:05;101513.41;;;2.01;97.72
17362;BME280;8798;51.938;4.348;2023-12-07T02:17:38;101525.72;;;2.02;97.49
17362;BME280;8798;51.938;4.348;2023-12-07T02:20:13;101526.66;;;2.01;96.77
17362;BME280;8798;51.938;4.348;2023-12-07T02:22:48;101532.81;;;2.02;96.96
17362;BME280;8798;51.938;4.348;2023-12-07T02:25:18;101534.63;;;2.01;97.50
17362;BME280;8798;51.938;4.348;2023-12-07T02:27:52;101556.59;;;2.03;97.38
17362;BME280;8798;51.938;4.348;2023-12-07T02:30:20;101562.66;;;2.05;97.92
17362;BME280;8798;51.938;4.348;2023-12-07T02:32:48;101577.63;;;2.06;97.49
17362;BME280;8798;51.938;4.348;2023-12-07T02:35:16;101586.34;;;2.08;97.44
17362;BME280;8798;51.938;4.348;2023-12-07T02:37:45;101586.25;;;2.10;97.18
17362;BME280;8798;51.938;4.348;2023-12-07T02:40:17;101590.63;;;2.11;97.65
17362;BME280;8798;51.938;4.348;2023-12-07T02:42:46;101600.38;;;2.10;97.09
17362;BME280;8798;51.938;4.348;2023-12-07T02:45:16;101602.16;;;2.10;96.70
17362;BME280;8798;51.938;4.348;2023-12-07T02:47:44;101597.78;;;2.09;97.09
17362;BME280;8798;51.938;4.348;2023-12-07T02:50:13;101600.50;;;2.07;97.59
17362;BME280;8798;51.938;4.348;2023-12-07T02:52:41;101597.88;;;2.07;97.16
17362;BME280;8798;51.938;4.348;2023-12-07T02:55:10;101599.66;;;2.07;96.96
17362;BME280;8798;51.938;4.348;2023-12-07T02:57:38;101605.81;;;2.07;96.85
17362;BME280;8798;51.938;4.348;2023-12-07T03:00:07;101613.75;;;2.07;97.12
17362;BME280;8798;51.938;4.348;2023-12-07T03:02:38;101613.75;;;2.07;96.87
17362;BME280;8798;51.938;4.348;2023-12-07T03:05:07;101625.16;;;2.09;96.90
17362;BME280;8798;51.938;4.348;2023-12-07T03:07:35;101635.59;;;2.12;96.81
17362;BME280;8798;51.938;4.348;2023-12-07T03:10:04;101663.66;;;2.17;97.87
17362;BME280;8798;51.938;4.348;2023-12-07T03:12:32;101669.81;;;2.17;97.61
17362;BME280;8798;51.938;4.348;2023-12-07T03:15:00;101675.88;;;2.19;97.78
17362;BME280;8798;51.938;4.348;2023-12-07T03:17:29;101682.03;;;2.20;97.56
17362;BME280;8798;51.938;4.348;2023-12-07T03:19:58;101701.31;;;2.23;97.07
17362;BME280;8798;51.938;4.348;2023-12-07T03:22:26;101715.34;;;2.25;97.57
17362;BME280;8798;51.938;4.348;2023-12-07T03:24:56;101726.63;;;2.29;97.68
17362;BME280;8798;51.938;4.348;2023-12-07T03:27:24;101741.47;;;2.33;96.87
17362;BME280;8798;51.938;4.348;2023-12-07T03:29:52;101772.16;;;2.37;96.86
17362;BME280;8798;51.938;4.348;2023-12-07T03:32:20;101788.81;;;2.41;97.30
17362;BME280;8798;51.938;4.348;2023-12-07T03:34:49;101788.72;;;2.42;97.74
17362;BME280;8798;51.938;4.348;2023-12-07T03:37:18;101808.06;;;2.44;97.45
17362;BME280;8798;51.938;4.348;2023-12-07T03:39:46;101814.16;;;2.46;96.85
17362;BME280;8798;51.938;4.348;2023-12-07T03:42:15;101826.38;;;2.49;97.44
17362;BME280;8798;51.938;4.348;2023-12-07T03:45:03;101842.13;;;2.52;97.31
17362;BME280;8798;51.938;4.348;2023-12-07T03:47:32;101846.44;;;2.54;97.59
17362;BME280;8798;51.938;4.348;2023-12-07T03:50:00;101858.78;;;2.55;96.89
17362;BME280;8798;51.938;4.348;2023-12-07T03:52:30;101865.72;;;2.58;97.10
17362;BME280;8798;51.938;4.348;2023-12-07T03:54:58;101869.22;;;2.58;97.18
17362;BME280;8798;51.938;4.348;2023-12-07T03:57:26;101863.13;;;2.56;97.07
17362;BME280;8798;51.938;4.348;2023-12-07T03:59:55;101846.53;;;2.53;97.30
17362;BME280;8798;51.938;4.348;2023-12-07T04:02:23;101844.78;;;2.52;97.39
17362;BME280;8798;51.938;4.348;2023-12-07T04:04:51;101832.63;;;2.48;96.55
17362;BME280;8798;51.938;4.348;2023-12-07T04:07:19;101838.78;;;2.48;97.16
17362;BME280;8798;51.938;4.348;2023-12-07T04:09:49;101827.41;;;2.46;97.25
17362;BME280;8798;51.938;4.348;2023-12-07T04:12:17;101831.84;;;2.46;97.55
17362;BME280;8798;51.938;4.348;2023-12-07T04:14:46;101838.78;;;2.48;97.79
17362;BME280;8798;51.938;4.348;2023-12-07T04:17:14;101830.06;;;2.46;97.11
17362;BME280;8798;51.938;4.348;2023-12-07T04:19:42;101829.19;;;2.46;97.12
17362;BME280;8798;51.938;4.348;2023-12-07T04:22:10;101842.38;;;2.47;97.71
17362;BME280;8798;51.938;4.348;2023-12-07T04:24:38;101837.16;;;2.46;97.28
17362;BME280;8798;51.938;4.348;2023-12-07T04:27:08;101833.72;;;2.44;97.13
17362;BME280;8798;51.938;4.348;2023-12-07T04:29:36;101820.63;;;2.41;97.04
17362;BME280;8798;51.938;4.348;2023-12-07T04:32:04;101812.72;;;2.39;97.28
17362;BME280;8798;51.938;4.348;2023-12-07T04:34:32;101805.72;;;2.38;97.49
17362;BME280;8798;51.938;4.348;2023-12-07T04:37:01;101804.88;;;2.38;96.83
17362;BME280;8798;51.938;4.348;2023-12-07T04:39:29;101789.09;;;2.34;97.81
17362;BME280;8798;51.938;4.348;2023-12-07T04:41:57;101792.69;;;2.33;97.07
17362;BME280;8798;51.938;4.348;2023-12-07T04:44:27;101788.38;;;2.31;97.05
17362;BME280;8798;51.938;4.348;2023-12-07T04:46:55;101789.25;;;2.31;97.80
17362;BME280;8798;51.938;4.348;2023-12-07T04:49:24;101783.94;;;2.31;96.68
17362;BME280;8798;51.938;4.348;2023-12-07T04:51:52;101793.69;;;2.31;97.36
17362;BME280;8798;51.938;4.348;2023-12-07T04:54:20;101792.84;;;2.30;97.03
17362;BME280;8798;51.938;4.348;2023-12-07T04:56:48;101801.56;;;2.32;96.88
17362;BME280;8798;51.938;4.348;2023-12-07T04:59:16;101811.19;;;2.35;97.40
17362;BME280;8798;51.938;4.348;2023-12-07T05:01:46;101819.97;;;2.35;96.84
17362;BME280;8798;51.938;4.348;2023-12-07T05:04:14;101797.19;;;2.31;97.23
17362;BME280;8798;51.938;4.348;2023-12-07T05:06:42;101799.00;;;2.31;97.93
17362;BME280;8798;51.938;4.348;2023-12-07T05:09:11;101799.06;;;2.29;97.41
17362;BME280;8798;51.938;4.348;2023-12-07T05:11:39;101808.66;;;2.32;97.31
17362;BME280;8798;51.938;4.348;2023-12-07T05:14:09;101791.19;;;2.28;97.06
17362;BME280;8798;51.938;4.348;2023-12-07T05:16:38;101781.50;;;2.27;97.60
17362;BME280;8798;51.938;4.348;2023-12-07T05:19:07;101807.00;;;2.29;96.84
17362;BME280;8798;51.938;4.348;2023-12-07T05:21:37;101793.91;;;2.26;97.34
17362;BME280;8798;51.938;4.348;2023-12-07T05:24:06;101799.22;;;2.26;97.14
17362;BME280;8798;51.938;4.348;2023-12-07T05:26:35;101813.16;;;2.30;97.38
17362;BME280;8798;51.938;4.348;2023-12-07T05:29:03;101815.81;;;2.30;97.60
17362;BME280;8798;51.938;4.348;2023-12-07T05:31:31;101819.34;;;2.30;96.92
17362;BME280;8798;51.938;4.348;2023-12-07T05:33:59;101825.50;;;2.31;96.86
17362;BME280;8798;51.938;4.348;2023-12-07T05:36:29;101798.44;;;2.24;97.54
17362;BME280;8798;51.938;4.348;2023-12-07T05:38:57;101788.84;;;2.22;97.69
17362;BME280;8798;51.938;4.348;2023-12-07T05:41:25;101789.78;;;2.21;97.28
17362;BME280;8798;51.938;4.348;2023-12-07T05:43:53;101783.53;;;2.22;97.20
17362;BME280;8798;51.938;4.348;2023-12-07T05:46:21;101792.44;;;2.21;97.77
17362;BME280;8798;51.938;4.348;2023-12-07T05:48:50;101786.28;;;2.20;97.05
17362;BME280;8798;51.938;4.348;2023-12-07T05:51:20;101781.88;;;2.19;97.14
17362;BME280;8798;51.938;4.348;2023-12-07T05:53:49;101766.22;;;2.14;97.43
17362;BME280;8798;51.938;4.348;2023-12-07T05:56:19;101768.84;;;2.14;97.49
17362;BME280;8798;51.938;4.348;2023-12-07T05:58:48;101766.31;;;2.13;96.75
17362;BME280;8798;51.938;4.348;2023-12-07T06:01:17;101755.78;;;2.11;97.89
17362;BME280;8798;51.938;4.348;2023-12-07T06:03:46;101760.22;;;2.11;97.24
17362;BME280;8798;51.938;4.348;2023-12-07T06:06:14;101775.16;;;2.12;97.11
17362;BME280;8798;51.938;4.348;2023-12-07T06:08:42;101783.84;;;2.15;97.26
17362;BME280;8798;51.938;4.348;2023-12-07T06:11:12;101769.81;;;2.13;96.90
17362;BME280;8798;51.938;4.348;2023-12-07T06:13:40;101770.72;;;2.12;97.05
17362;BME280;8798;51.938;4.348;2023-12-07T06:16:12;101768.16;;;2.11;97.71
17362;BME280;8798;51.938;4.348;2023-12-07T06:18:41;101784.75;;;2.14;97.12
17362;BME280;8798;51.938;4.348;2023-12-07T06:21:09;101792.72;;;2.14;97.43
17362;BME280;8798;51.938;4.348;2023-12-07T06:23:39;101784.75;;;2.14;97.03
17362;BME280;8798;51.938;4.348;2023-12-07T06:26:08;101783.97;;;2.12;97.23
17362;BME280;8798;51.938;4.348;2023-12-07T06:28:38;101775.25;;;2.10;96.68
17362;BME280;8798;51.938;4.348;2023-12-07T06:31:06;101774.31;;;2.11;97.43
17362;BME280;8798;51.938;4.348;2023-12-07T06:33:35;101787.50;;;2.13;96.92
17362;BME280;8798;51.938;4.348;2023-12-07T06:36:04;101797.16;;;2.14;96.93
17362;BME280;8798;51.938;4.348;2023-12-07T06:38:32;101798.88;;;2.15;96.91
17362;BME280;8798;51.938;4.348;2023-12-07T06:41:00;101812.84;;;2.19;97.41
17362;BME280;8798;51.938;4.348;2023-12-07T06:43:29;101817.28;;;2.18;97.45
17362;BME280;8798;51.938;4.348;2023-12-07T06:45:58;101829.59;;;2.19;97.66
17362;BME280;8798;51.938;4.348;2023-12-07T06:48:26;101825.16;;;2.20;97.68
17362;BME280;8798;51.938;4.348;2023-12-07T06:50:55;101826.09;;;2.19;97.22
17362;BME280;8798;51.938;4.348;2023-12-07T06:53:23;101826.09;;;2.19;97.30
17362;BME280;8798;51.938;4.348;2023-12-07T06:55:51;101819.06;;;2.18;97.15
17362;BME280;8798;51.938;4.348;2023-12-07T06:58:19;101828.75;;;2.19;97.27
17362;BME280;8798;51.938;4.348;2023-12-07T07:00:48;101852.38;;;2.23;97.29
17362;BME280;8798;51.938;4.348;2023-12-07T07:03:18;101855.81;;;2.25;96.82
17362;BME280;8798;51.938;4.348;2023-12-07T07:05:46;101854.94;;;2.25;97.06
17362;BME280;8798;51.938;4.348;2023-12-07T07:08:14;101853.22;;;2.24;97.02
17362;BME280;8798;51.938;4.348;2023-12-07T07:10:43;101854.94;;;2.25;97.06
17362;BME280;8798;51.938;4.348;2023-12-07T07:13:12;101842.63;;;2.24;96.78
17362;BME280;8798;51.938;4.348;2023-12-07T07:15:42;101859.38;;;2.24;96.67
17362;BME280;8798;51.938;4.348;2023-12-07T07:18:18;101858.47;;;2.25;97.17
17362;BME280;8798;51.938;4.348;2023-12-07T07:20:47;101881.22;;;2.29;97.08
17362;BME280;8798;51.938;4.348;2023-12-07T07:23:15;101888.16;;;2.32;97.74
17362;BME280;8798;51.938;4.348;2023-12-07T07:25:43;101896.06;;;2.33;96.89
17362;BME280;8798;51.938;4.348;2023-12-07T07:28:12;101905.66;;;2.36;97.46
17362;BME280;8798;51.938;4.348;2023-12-07T07:30:40;101925.88;;;2.39;97.20
17362;BME280;8798;51.938;4.348;2023-12-07T07:33:08;101934.53;;;2.42;96.91
17362;BME280;8798;51.938;4.348;2023-12-07T07:35:37;101941.47;;;2.45;97.68
17362;BME280;8798;51.938;4.348;2023-12-07T07:38:05;101943.25;;;2.44;96.55
17362;BME280;8798;51.938;4.348;2023-12-07T07:40:33;101932.81;;;2.41;97.19
17362;BME280;8798;51.938;4.348;2023-12-07T07:43:02;101922.28;;;2.40;97.17
17362;BME280;8798;51.938;4.348;2023-12-07T07:45:31;101929.38;;;2.39;97.49
17362;BME280;8798;51.938;4.348;2023-12-07T07:47:59;101921.50;;;2.38;96.78
17362;BME280;8798;51.938;4.348;2023-12-07T07:50:28;101926.72;;;2.39;97.05
17362;BME280;8798;51.938;4.348;2023-12-07T07:52:57;101932.81;;;2.41;97.33
17362;BME280;8798;51.938;4.348;2023-12-07T07:55:25;101948.56;;;2.44;97.41
17362;BME280;8798;51.938;4.348;2023-12-07T07:57:53;101959.03;;;2.47;97.31
17362;BME280;8798;51.938;4.348;2023-12-07T08:00:22;101973.88;;;2.51;96.84
17362;BME280;8798;51.938;4.348;2023-12-07T08:02:52;101994.88;;;2.56;96.88
17362;BME280;8798;51.938;4.348;2023-12-07T08:05:21;102012.38;;;2.60;97.49
17362;BME280;8798;51.938;4.348;2023-12-07T08:07:49;102010.50;;;2.62;97.65
17362;BME280;8798;51.938;4.348;2023-12-07T08:10:20;102014.03;;;2.63;97.23
17362;BME280;8798;51.938;4.348;2023-12-07T08:12:48;102033.28;;;2.66;96.99
17362;BME280;8798;51.938;4.348;2023-12-07T08:15:17;102047.28;;;2.70;97.07
17362;BME280;8798;51.938;4.348;2023-12-07T08:17:45;102048.06;;;2.72;97.54
17362;BME280;8798;51.938;4.348;2023-12-07T08:20:14;102052.50;;;2.71;96.41
17362;BME280;8798;51.938;4.348;2023-12-07T08:22:43;102043.69;;;2.71;97.04
17362;BME280;8798;51.938;4.348;2023-12-07T08:25:11;102046.34;;;2.71;97.33
17362;BME280;8798;51.938;4.348;2023-12-07T08:27:41;102055.09;;;2.73;96.79
17362;BME280;8798;51.938;4.348;2023-12-07T08:30:11;102070.81;;;2.77;97.29
17362;BME280;8798;51.938;4.348;2023-12-07T08:32:40;102076.91;;;2.79;96.88
17362;BME280;8798;51.938;4.348;2023-12-07T08:35:08;102077.75;;;2.80;97.14
17362;BME280;8798;51.938;4.348;2023-12-07T08:37:37;102076.91;;;2.79;97.19
17362;BME280;8798;51.938;4.348;2023-12-07T08:40:07;102075.09;;;2.80;96.80
17362;BME280;8798;51.938;4.348;2023-12-07T08:42:36;102090.09;;;2.81;96.71
17362;BME280;8798;51.938;4.348;2023-12-07T08:45:07;102101.34;;;2.86;96.84
17362;BME280;8798;51.938;4.348;2023-12-07T08:47:36;102118.78;;;2.92;96.80
17362;BME280;8798;51.938;4.348;2023-12-07T08:50:05;102134.41;;;2.98;97.08
17362;BME280;8798;51.938;4.348;2023-12-07T08:52:34;102146.75;;;2.99;97.35
17362;BME280;8798;51.938;4.348;2023-12-07T08:55:13;102160.75;;;3.03;97.09
17362;BME280;8798;51.938;4.348;2023-12-07T08:57:42;102168.56;;;3.06;96.90
17362;BME280;8798;51.938;4.348;2023-12-07T09:00:13;102180.78;;;3.10;97.50
17362;BME280;8798;51.938;4.348;2023-12-07T09:02:41;102197.34;;;3.15;97.06
17362;BME280;8798;51.938;4.348;2023-12-07T09:05:14;102217.50;;;3.19;97.11
17362;BME280;8798;51.938;4.348;2023-12-07T09:07:42;102227.06;;;3.23;96.87
17362;BME280;8798;51.938;4.348;2023-12-07T09:10:11;102255.09;;;3.29;96.71
17362;BME280;8798;51.938;4.348;2023-12-07T09:12:39;102255.03;;;3.30;97.33
17362;BME280;8798;51.938;4.348;2023-12-07T09:15:08;102253.19;;;3.32;96.79
17362;BME280;8798;51.938;4.348;2023-12-07T09:17:39;102259.28;;;3.34;97.04
17362;BME280;8798;51.938;4.348;2023-12-07T09:20:09;102278.69;;;3.36;96.90
17362;BME280;8798;51.938;4.348;2023-12-07T09:22:42;102284.75;;;3.38;97.45
17362;BME280;8798;51.938;4.348;2023-12-07T09:25:12;102284.66;;;3.41;97.35
17362;BME280;8798;51.938;4.348;2023-12-07T09:27:40;102301.22;;;3.47;97.09
17362;BME280;8798;51.938;4.348;2023-12-07T09:30:09;102320.47;;;3.52;96.96
17362;BME280;8798;51.938;4.348;2023-12-07T09:32:41;102333.63;;;3.55;97.23
17362;BME280;8798;51.938;4.348;2023-12-07T09:35:12;102330.00;;;3.56;97.28
17362;BME280;8798;51.938;4.348;2023-12-07T09:37:42;102333.47;;;3.58;97.04
17362;BME280;8798;51.938;4.348;2023-12-07T09:40:15;102334.25;;;3.60;96.81
17362;BME280;8798;51.938;4.348;2023-12-07T09:42:45;102332.47;;;3.60;96.82
17362;BME280;8798;51.938;4.348;2023-12-07T09:45:14;102342.94;;;3.63;96.92
17362;BME280;8798;51.938;4.348;2023-12-07T09:47:48;102336.78;;;3.63;97.29
17362;BME280;8798;51.938;4.348;2023-12-07T09:50:19;102345.50;;;3.66;97.31
17362;BME280;8798;51.938;4.348;2023-12-07T09:52:49;102363.78;;;3.73;97.16
17362;BME280;8798;51.938;4.348;2023-12-07T09:55:33;102384.78;;;3.79;96.93
17362;BME280;8798;51.938;4.348;2023-12-07T09:58:03;102394.31;;;3.83;97.04
17362;BME280;8798;51.938;4.348;2023-12-07T10:00:34;102395.22;;;3.83;97.03
17362;BME280;8798;51.938;4.348;2023-12-07T10:03:05;102404.84;;;3.86;97.02
17362;BME280;8798;51.938;4.348;2023-12-07T10:05:53;102416.13;;;3.91;97.30
17362;BME280;8798;51.938;4.348;2023-12-07T10:08:29;102427.41;;;3.96;96.97
17362;BME280;8798;51.938;4.348;2023-12-07T10:11:08;102436.19;;;3.98;96.81
17362;BME280;8798;51.938;4.348;2023-12-07T10:13:37;102450.19;;;4.02;96.97
17362;BME280;8798;51.938;4.348;2023-12-07T10:16:10;102443.00;;;4.04;96.66
17362;BME280;8798;51.938;4.348;2023-12-07T10:18:40;102427.25;;;3.99;97.24
17362;BME280;8798;51.938;4.348;2023-12-07T10:21:11;102414.03;;;3.98;97.34
17362;BME280;8798;51.938;4.348;2023-12-07T10:23:41;102423.66;;;4.00;97.28
17362;BME280;8798;51.938;4.348;2023-12-07T10:26:16;102427.91;;;4.04;96.91
17362;BME280;8798;51.938;4.348;2023-12-07T10:28:46;102441.00;;;4.09;96.77
17362;BME280;8798;51.938;4.348;2023-12-07T10:31:20;102442.72;;;4.10;96.84
17362;BME280;8798;51.938;4.348;2023-12-07T10:33:50;102448.69;;;4.15;97.37
17362;BME280;8798;51.938;4.348;2023-12-07T10:36:19;102465.16;;;4.23;96.94
17362;BME280;8798;51.938;4.348;2023-12-07T10:38:47;102479.31;;;4.24;97.22
17362;BME280;8798;51.938;4.348;2023-12-07T10:41:19;102485.34;;;4.27;97.26
17362;BME280;8798;51.938;4.348;2023-12-07T10:43:49;102482.63;;;4.29;97.39
17362;BME280;8798;51.938;4.348;2023-12-07T10:46:20;102493.97;;;4.32;97.03
17362;BME280;8798;51.938;4.348;2023-12-07T10:48:52;102503.56;;;4.37;97.44
17362;BME280;8798;51.938;4.348;2023-12-07T10:51:27;102479.75;;;4.34;97.05
17362;BME280;8798;51.938;4.348;2023-12-07T10:53:57;102481.47;;;4.35;97.27
17362;BME280;8798;51.938;4.348;2023-12-07T10:56:35;102474.31;;;4.37;97.18
17362;BME280;8798;51.938;4.348;2023-12-07T10:59:09;102492.72;;;4.41;97.22
17362;BME280;8798;51.938;4.348;2023-12-07T11:01:53;102468.13;;;4.36;96.98
17362;BME280;8798;51.938;4.348;2023-12-07T11:04:23;102462.75;;;4.38;97.16
17362;BME280;8798;51.938;4.348;2023-12-07T11:06:54;102459.13;;;4.39;97.21
17362;BME280;8798;51.938;4.348;2023-12-07T11:09:28;102464.41;;;4.40;97.39
17362;BME280;8798;51.938;4.348;2023-12-07T11:12:04;102458.97;;;4.42;96.89
17362;BME280;8798;51.938;4.348;2023-12-07T11:14:37;102457.19;;;4.42;97.51
17362;BME280;8798;51.938;4.348;2023-12-07T11:17:06;102443.97;;;4.41;97.42
17362;BME280;8798;51.938;4.348;2023-12-07T11:19:46;102429.72;;;4.42;97.26
17362;BME280;8798;51.938;4.348;2023-12-07T11:22:15;102437.69;;;4.42;96.91
17362;BME280;8798;51.938;4.348;2023-12-07T11:24:54;102423.53;;;4.41;97.40
17362;BME280;8798;51.938;4.348;2023-12-07T11:27:24;102429.56;;;4.45;96.77
17362;BME280;8798;51.938;4.348;2023-12-07T11:29:53;102443.50;;;4.50;96.98
17362;BME280;8798;51.938;4.348;2023-12-07T11:32:21;102454.03;;;4.53;97.21
17362;BME280;8798;51.938;4.348;2023-12-07T11:35:02;102464.38;;;4.59;96.91
17362;BME280;8798;51.938;4.348;2023-12-07T11:38:01;102491.50;;;4.67;97.28
17362;BME280;8798;51.938;4.348;2023-12-07T11:40:30;102536.25;;;4.78;96.92
17362;BME280;8798;51.938;4.348;2023-12-07T11:43:00;102557.16;;;4.86;97.29
17362;BME280;8798;51.938;4.348;2023-12-07T11:45:41;102582.56;;;4.93;97.23
17362;BME280;8798;51.938;4.348;2023-12-07T11:48:11;102588.53;;;4.98;97.55
17362;BME280;8798;51.938;4.348;2023-12-07T11:50:55;102600.78;;;5.02;97.28
17362;BME280;8798;51.938;4.348;2023-12-07T11:53:25;102603.22;;;5.07;97.31
17362;BME280;8798;51.938;4.348;2023-12-07T11:55:55;102615.47;;;5.11;97.23
17362;BME280;8798;51.938;4.348;2023-12-07T11:58:28;102612.63;;;5.14;97.18
17362;BME280;8798;51.938;4.348;2023-12-07T12:00:59;102619.63;;;5.16;97.04
17362;BME280;8798;51.938;4.348;2023-12-07T12:03:29;102616.03;;;5.17;97.92
17362;BME280;8798;51.938;4.348;2023-12-07T12:05:59;102622.94;;;5.22;96.97
17362;BME280;8798;51.938;4.348;2023-12-07T12:08:27;102624.63;;;5.24;97.34
17362;BME280;8798;51.938;4.348;2023-12-07T12:10:55;102618.41;;;5.24;97.34
17362;BME280;8798;51.938;4.348;2023-12-07T12:13:28;102598.91;;;5.23;97.55
17362;BME280;8798;51.938;4.348;2023-12-07T12:15:57;102600.53;;;5.26;97.01
17362;BME280;8798;51.938;4.348;2023-12-07T12:18:30;102585.41;;;5.26;97.31
17362;BME280;8798;51.938;4.348;2023-12-07T12:21:01;102589.81;;;5.27;96.91
17362;BME280;8798;51.938;4.348;2023-12-07T12:23:29;102595.78;;;5.32;97.38
17362;BME280;8798;51.938;4.348;2023-12-07T12:26:01;102607.94;;;5.38;97.04
17362;BME280;8798;51.938;4.348;2023-12-07T12:28:30;102605.22;;;5.39;97.70
17362;BME280;8798;51.938;4.348;2023-12-07T12:31:00;102609.53;;;5.42;97.11
17362;BME280;8798;51.938;4.348;2023-12-07T12:33:28;102605.94;;;5.43;97.64
17362;BME280;8798;51.938;4.348;2023-12-07T12:36:05;102628.63;;;5.52;97.69
17362;BME280;8798;51.938;4.348;2023-12-07T12:38:37;102631.97;;;5.55;97.07
17362;BME280;8798;51.938;4.348;2023-12-07T12:41:10;102614.28;;;5.54;97.40
17362;BME280;8798;51.938;4.348;2023-12-07T12:43:40;102608.09;;;5.54;97.35
17362;BME280;8798;51.938;4.348;2023-12-07T12:46:09;102596.47;;;5.55;96.42
17362;BME280;8798;51.938;4.348;2023-12-07T12:48:52;102592.00;;;5.55;96.95
17362;BME280;8798;51.938;4.348;2023-12-07T12:51:24;102597.09;;;5.60;96.85
17362;BME280;8798;51.938;4.348;2023-12-07T12:53:54;102599.72;;;5.62;96.59
17362;BME280;8798;51.938;4.348;2023-12-07T12:56:24;102592.47;;;5.64;97.10
17362;BME280;8798;51.938;4.348;2023-12-07T12:58:52;102595.06;;;5.65;96.67
17362;BME280;8798;51.938;4.348;2023-12-07T13:01:29;102579.94;;;5.66;97.01
17362;BME280;8798;51.938;4.348;2023-12-07T13:03:58;102579.94;;;5.66;97.86
17362;BME280;8798;51.938;4.348;2023-12-07T13:06:28;102559.56;;;5.65;97.32
17362;BME280;8798;51.938;4.348;2023-12-07T13:08:56;102555.03;;;5.67;97.02
17362;BME280;8798;51.938;4.348;2023-12-07T13:11:25;102541.75;;;5.65;97.75
17362;BME280;8798;51.938;4.348;2023-12-07T13:13:56;102531.09;;;5.65;97.81
17362;BME280;8798;51.938;4.348;2023-12-07T13:16:24;102517.84;;;5.64;97.33
17362;BME280;8798;51.938;4.348;2023-12-07T13:18:54;102502.84;;;5.61;97.82
17362;BME280;8798;51.938;4.348;2023-12-07T13:21:22;102477.22;;;5.58;97.08
17362;BME280;8798;51.938;4.348;2023-12-07T13:23:52;102464.00;;;5.57;96.92